createdAt,value
2017-05-10T00:00:04.234Z,927.02
2017-05-10T00:00:23.076Z,926.98
2017-05-10T00:00:43.058Z,927.01
2017-05-10T00:01:03.050Z,927.03
2017-05-10T00:01:23.031Z,927
2017-05-10T00:01:43.045Z,927.04
2017-05-10T00:02:03.037Z,927.02
2017-05-10T00:02:22.468Z,927.06
2017-05-10T00:02:41.935Z,927.04
2017-05-10T00:03:01.941Z,927.01
2017-05-10T00:03:21.925Z,927.04
2017-05-10T00:03:41.924Z,927.05
2017-05-10T00:04:01.932Z,927.09
2017-05-10T00:04:21.974Z,927.08
2017-05-10T00:04:41.993Z,927.07
2017-05-10T00:05:01.968Z,927.06
2017-05-10T00:05:21.412Z,927.08
2017-05-10T00:05:41.414Z,927.09
2017-05-10T00:06:01.410Z,927.09
2017-05-10T00:06:20.873Z,927.08
2017-05-10T00:06:40.874Z,927.09
2017-05-10T00:07:00.875Z,927.06
2017-05-10T00:07:20.919Z,927.08
2017-05-10T00:07:40.906Z,927.06
2017-05-10T00:08:00.922Z,927.11
2017-05-10T00:08:20.940Z,927.1
2017-05-10T00:08:40.898Z,927.1
2017-05-10T00:09:00.325Z,927.09
2017-05-10T00:09:20.327Z,927.12
2017-05-10T00:09:40.338Z,927.11
2017-05-10T00:10:00.367Z,927.11
2017-05-10T00:10:19.775Z,927.1
2017-05-10T00:10:39.791Z,927.12
2017-05-10T00:10:59.801Z,927.15
2017-05-10T00:11:19.786Z,927.15
2017-05-10T00:11:39.750Z,927.14
2017-05-10T00:11:59.756Z,927.18
2017-05-10T00:12:19.783Z,927.19
2017-05-10T00:12:39.762Z,927.2
2017-05-10T00:12:59.161Z,927.2
2017-05-10T00:13:19.151Z,927.22
2017-05-10T00:13:39.158Z,927.21
2017-05-10T00:13:59.158Z,927.23
2017-05-10T00:14:18.595Z,927.22
2017-05-10T00:14:38.627Z,927.23
2017-05-10T00:14:58.618Z,927.22
2017-05-10T00:15:18.625Z,927.2
2017-05-10T00:15:38.609Z,927.24
2017-05-10T00:15:58.610Z,927.26
2017-05-10T00:16:18.620Z,927.27
2017-05-10T00:16:38.609Z,927.26
2017-05-10T00:16:57.499Z,927.29
2017-05-10T00:17:17.506Z,927.24
2017-05-10T00:17:37.528Z,927.3
2017-05-10T00:17:57.521Z,927.29
2017-05-10T00:18:17.496Z,927.28
2017-05-10T00:18:37.473Z,927.28
2017-05-10T00:18:57.444Z,927.31
2017-05-10T00:19:17.430Z,927.28
2017-05-10T00:19:36.870Z,927.32
2017-05-10T00:19:56.856Z,927.28
2017-05-10T00:20:16.304Z,927.32
2017-05-10T00:20:35.717Z,927.32
2017-05-10T00:20:55.709Z,927.32
2017-05-10T00:21:15.168Z,927.33
2017-05-10T00:21:35.158Z,927.36
2017-05-10T00:21:55.238Z,927.33
2017-05-10T00:22:14.687Z,927.33
2017-05-10T00:22:34.674Z,927.34
2017-05-10T00:22:54.123Z,927.32
2017-05-10T00:23:14.109Z,927.33
2017-05-10T00:23:34.113Z,927.33
2017-05-10T00:23:54.067Z,927.33
2017-05-10T00:24:14.038Z,927.29
2017-05-10T00:24:33.486Z,927.32
2017-05-10T00:24:52.891Z,927.35
2017-05-10T00:25:12.875Z,927.34
2017-05-10T00:25:32.887Z,927.33
2017-05-10T00:25:52.875Z,927.36
2017-05-10T00:26:12.680Z,927.34
2017-05-10T00:26:32.697Z,927.34
2017-05-10T00:26:52.705Z,927.34
2017-05-10T00:27:12.727Z,927.36
2017-05-10T00:27:32.146Z,927.38
2017-05-10T00:27:52.111Z,927.4
2017-05-10T00:28:12.077Z,927.4
2017-05-10T00:28:32.050Z,927.37
2017-05-10T00:28:52.064Z,927.36
2017-05-10T00:29:12.077Z,927.36
2017-05-10T00:29:32.030Z,927.37
2017-05-10T00:29:52.053Z,927.38
2017-05-10T00:30:11.460Z,927.38
2017-05-10T00:30:31.458Z,927.38
2017-05-10T00:30:50.861Z,927.4
2017-05-10T00:31:10.847Z,927.37
2017-05-10T00:31:30.829Z,927.38
2017-05-10T00:31:50.830Z,927.37
2017-05-10T00:32:10.250Z,927.38
2017-05-10T00:32:30.220Z,927.38
2017-05-10T00:32:50.231Z,927.37
2017-05-10T00:33:10.237Z,927.39
2017-05-10T00:33:29.656Z,927.4
2017-05-10T00:33:49.677Z,927.39
2017-05-10T00:34:09.705Z,927.36
2017-05-10T00:34:29.132Z,927.33
2017-05-10T00:34:49.178Z,927.34
2017-05-10T00:35:09.224Z,927.37
2017-05-10T00:35:28.597Z,927.35
2017-05-10T00:35:48.021Z,927.34
2017-05-10T00:36:08.068Z,927.33
2017-05-10T00:36:27.481Z,927.41
2017-05-10T00:36:47.482Z,927.35
2017-05-10T00:37:06.938Z,927.37
2017-05-10T00:37:26.390Z,927.38
2017-05-10T00:37:46.386Z,927.38
2017-05-10T00:38:05.802Z,927.38
2017-05-10T00:38:25.785Z,927.38
2017-05-10T00:38:45.770Z,927.41
2017-05-10T00:39:05.791Z,927.4
2017-05-10T00:39:25.806Z,927.41
2017-05-10T00:39:45.256Z,927.42
2017-05-10T00:40:04.686Z,927.39
2017-05-10T00:40:24.682Z,927.35
2017-05-10T00:40:44.682Z,927.38
2017-05-10T00:41:04.669Z,927.37
2017-05-10T00:41:24.673Z,927.34
2017-05-10T00:41:44.673Z,927.37
2017-05-10T00:42:04.675Z,927.39
2017-05-10T00:42:24.151Z,927.36
2017-05-10T00:42:44.164Z,927.39
2017-05-10T00:43:04.155Z,927.43
2017-05-10T00:43:24.184Z,927.4
2017-05-10T00:43:44.377Z,927.39
2017-05-10T00:44:04.163Z,927.36
2017-05-10T00:44:24.147Z,927.4
2017-05-10T00:44:44.173Z,927.4
2017-05-10T00:45:04.200Z,927.42
2017-05-10T00:45:23.620Z,927.42
2017-05-10T00:45:42.494Z,927.44
2017-05-10T00:46:02.495Z,927.43
2017-05-10T00:46:21.961Z,927.43
2017-05-10T00:46:41.912Z,927.42
2017-05-10T00:47:01.930Z,927.42
2017-05-10T00:47:20.784Z,927.43
2017-05-10T00:47:40.771Z,927.41
2017-05-10T00:48:00.229Z,927.4
2017-05-10T00:48:20.243Z,927.42
2017-05-10T00:48:40.326Z,927.44
2017-05-10T00:48:59.795Z,927.4
2017-05-10T00:49:19.217Z,927.48
2017-05-10T00:49:39.173Z,927.42
2017-05-10T00:49:59.121Z,927.45
2017-05-10T00:50:18.566Z,927.45
2017-05-10T00:50:38.554Z,927.43
2017-05-10T00:51:12.671Z,927.44
2017-05-10T00:51:32.700Z,927.46
2017-05-10T00:51:52.181Z,927.46
2017-05-10T00:52:12.258Z,927.45
2017-05-10T00:52:32.300Z,927.45
2017-05-10T00:52:52.323Z,927.44
2017-05-10T00:53:12.298Z,927.45
2017-05-10T00:53:32.319Z,927.45
2017-05-10T00:53:52.346Z,927.46
2017-05-10T00:54:11.769Z,927.45
2017-05-10T00:54:31.750Z,927.43
2017-05-10T00:54:51.759Z,927.46
2017-05-10T00:55:11.745Z,927.47
2017-05-10T00:55:31.735Z,927.47
2017-05-10T00:55:51.709Z,927.47
2017-05-10T00:56:11.727Z,927.47
2017-05-10T00:56:31.703Z,927.46
2017-05-10T00:56:51.696Z,927.45
2017-05-10T00:57:11.715Z,927.45
2017-05-10T00:57:31.730Z,927.47
2017-05-10T00:57:51.685Z,927.43
2017-05-10T00:58:11.645Z,927.45
2017-05-10T00:58:31.637Z,927.43
2017-05-10T00:58:51.708Z,927.45
2017-05-10T00:59:11.692Z,927.42
2017-05-10T00:59:31.691Z,927.44
2017-05-10T00:59:51.105Z,927.47
2017-05-10T01:00:11.104Z,927.46
2017-05-10T01:00:31.094Z,927.47
2017-05-10T01:00:51.072Z,927.43
2017-05-10T01:01:11.060Z,927.46
2017-05-10T01:01:30.483Z,927.43
2017-05-10T01:01:50.519Z,927.47
2017-05-10T01:02:10.517Z,927.47
2017-05-10T01:02:29.970Z,927.46
2017-05-10T01:02:49.439Z,927.47
2017-05-10T01:03:09.431Z,927.5
2017-05-10T01:03:28.843Z,927.51
2017-05-10T01:03:48.282Z,927.47
2017-05-10T01:04:08.308Z,927.46
2017-05-10T01:04:28.331Z,927.49
2017-05-10T01:04:47.769Z,927.47
2017-05-10T01:05:07.773Z,927.44
2017-05-10T01:05:27.154Z,927.45
2017-05-10T01:05:47.164Z,927.41
2017-05-10T01:06:07.137Z,927.47
2017-05-10T01:06:26.017Z,927.43
2017-05-10T01:06:46.001Z,927.48
2017-05-10T01:07:06.025Z,927.46
2017-05-10T01:07:25.432Z,927.5
2017-05-10T01:07:44.853Z,927.47
2017-05-10T01:08:04.846Z,927.5
2017-05-10T01:08:24.285Z,927.49
2017-05-10T01:08:44.303Z,927.51
2017-05-10T01:09:04.296Z,927.49
2017-05-10T01:09:24.286Z,927.51
2017-05-10T01:09:44.251Z,927.5
2017-05-10T01:10:04.191Z,927.52
2017-05-10T01:10:24.203Z,927.52
2017-05-10T01:10:43.623Z,927.49
2017-05-10T01:11:03.582Z,927.48
2017-05-10T01:11:23.014Z,927.5
2017-05-10T01:11:42.978Z,927.56
2017-05-10T01:12:02.969Z,927.55
2017-05-10T01:12:22.341Z,927.52
2017-05-10T01:12:42.318Z,927.55
2017-05-10T01:13:02.271Z,927.51
2017-05-10T01:13:22.253Z,927.49
2017-05-10T01:13:42.247Z,927.54
2017-05-10T01:14:02.246Z,927.49
2017-05-10T01:14:22.268Z,927.52
2017-05-10T01:14:42.339Z,927.51
2017-05-10T01:15:02.331Z,927.52
2017-05-10T01:15:21.741Z,927.51
2017-05-10T01:15:41.699Z,927.52
2017-05-10T01:16:01.679Z,927.57
2017-05-10T01:16:19.997Z,927.54
2017-05-10T01:16:40.001Z,927.54
2017-05-10T01:16:59.417Z,927.57
2017-05-10T01:17:19.412Z,927.55
2017-05-10T01:17:39.416Z,927.56
2017-05-10T01:17:59.444Z,927.55
2017-05-10T01:18:18.320Z,927.54
2017-05-10T01:18:37.742Z,927.54
2017-05-10T01:18:57.722Z,927.56
2017-05-10T01:19:17.743Z,927.55
2017-05-10T01:19:37.718Z,927.54
2017-05-10T01:19:57.705Z,927.57
2017-05-10T01:20:17.705Z,927.54
2017-05-10T01:20:37.713Z,927.53
2017-05-10T01:20:57.715Z,927.55
2017-05-10T01:21:17.701Z,927.54
2017-05-10T01:21:37.685Z,927.53
2017-05-10T01:21:57.664Z,927.56
2017-05-10T01:22:17.649Z,927.52
2017-05-10T01:22:37.674Z,927.56
2017-05-10T01:22:57.684Z,927.58
2017-05-10T01:23:17.680Z,927.57
2017-05-10T01:23:37.714Z,927.56
2017-05-10T01:23:57.706Z,927.58
2017-05-10T01:24:16.553Z,927.58
2017-05-10T01:24:36.601Z,927.55
2017-05-10T01:24:56.571Z,927.57
2017-05-10T01:25:16.572Z,927.56
2017-05-10T01:25:36.574Z,927.58
2017-05-10T01:25:56.596Z,927.59
2017-05-10T01:26:16.589Z,927.56
2017-05-10T01:26:36.605Z,927.55
2017-05-10T01:26:56.600Z,927.54
2017-05-10T01:27:16.602Z,927.54
2017-05-10T01:27:50.552Z,927.56
2017-05-10T01:28:25.984Z,927.57
2017-05-10T01:28:46.107Z,927.56
2017-05-10T01:29:06.265Z,927.56
2017-05-10T01:29:28.006Z,927.52
2017-05-10T01:29:49.325Z,927.56
2017-05-10T01:30:09.493Z,927.57
2017-05-10T01:30:30.152Z,927.56
2017-05-10T01:30:50.266Z,927.59
2017-05-10T01:31:10.417Z,927.58
2017-05-10T01:31:30.421Z,927.55
2017-05-10T01:31:51.454Z,927.56
2017-05-10T01:32:12.746Z,927.59
2017-05-10T01:32:47.487Z,927.54
2017-05-10T01:33:08.449Z,927.57
2017-05-10T01:33:48.796Z,927.55
2017-05-10T01:34:11.144Z,927.57
2017-05-10T01:34:33.852Z,927.58
2017-05-10T01:34:54.783Z,927.56
2017-05-10T01:35:29.820Z,927.54
2017-05-10T01:35:49.433Z,927.53
2017-05-10T01:36:09.666Z,927.56
2017-05-10T01:36:29.292Z,927.55
2017-05-10T01:36:49.781Z,927.58
2017-05-10T01:37:58.633Z,927.56
2017-05-10T01:38:19.167Z,927.54
2017-05-10T01:38:53.506Z,927.55
2017-05-10T01:39:13.669Z,927.54
2017-05-10T01:39:33.088Z,927.53
2017-05-10T01:39:52.547Z,927.55
2017-05-10T01:40:11.962Z,927.53
2017-05-10T01:40:31.968Z,927.48
2017-05-10T01:40:51.404Z,927.57
2017-05-10T01:41:11.381Z,927.55
2017-05-10T01:41:30.804Z,927.54
2017-05-10T01:41:50.747Z,927.52
2017-05-10T01:42:10.129Z,927.51
2017-05-10T01:42:30.124Z,927.52
2017-05-10T01:42:50.121Z,927.53
2017-05-10T01:43:10.134Z,927.52
2017-05-10T01:43:30.154Z,927.54
2017-05-10T01:43:50.173Z,927.55
2017-05-10T01:44:10.169Z,927.56
2017-05-10T01:44:30.169Z,927.53
2017-05-10T01:44:49.595Z,927.59
2017-05-10T01:45:09.596Z,927.53
2017-05-10T01:45:29.578Z,927.54
2017-05-10T01:45:49.595Z,927.56
2017-05-10T01:46:09.030Z,927.53
2017-05-10T01:46:29.016Z,927.53
2017-05-10T01:46:49.000Z,927.52
2017-05-10T01:47:08.973Z,927.55
2017-05-10T01:47:28.971Z,927.54
2017-05-10T01:47:48.987Z,927.57
2017-05-10T01:48:08.432Z,927.61
2017-05-10T01:48:28.466Z,927.57
2017-05-10T01:48:48.494Z,927.54
2017-05-10T01:49:07.953Z,927.6
2017-05-10T01:49:27.391Z,927.59
2017-05-10T01:49:46.835Z,927.59
2017-05-10T01:50:05.724Z,927.6
2017-05-10T01:50:25.748Z,927.58
2017-05-10T01:50:45.744Z,927.59
2017-05-10T01:51:05.766Z,927.58
2017-05-10T01:51:25.781Z,927.6
2017-05-10T01:51:45.764Z,927.6
2017-05-10T01:52:05.862Z,927.61
2017-05-10T01:52:25.290Z,927.63
2017-05-10T01:52:45.271Z,927.62
2017-05-10T01:53:05.289Z,927.65
2017-05-10T01:53:24.751Z,927.61
2017-05-10T01:53:44.161Z,927.62
2017-05-10T01:54:04.154Z,927.6
2017-05-10T01:54:23.612Z,927.63
2017-05-10T01:54:43.604Z,927.65
2017-05-10T01:55:03.615Z,927.64
2017-05-10T01:55:23.610Z,927.67
2017-05-10T01:55:43.010Z,927.64
2017-05-10T01:56:02.994Z,927.65
2017-05-10T01:56:22.674Z,927.65
2017-05-10T01:56:42.696Z,927.66
2017-05-10T01:57:02.735Z,927.62
2017-05-10T01:57:22.170Z,927.63
2017-05-10T01:57:42.205Z,927.61
2017-05-10T01:58:02.194Z,927.68
2017-05-10T01:58:22.163Z,927.68
2017-05-10T01:58:42.195Z,927.64
2017-05-10T01:59:02.188Z,927.68
2017-05-10T01:59:21.641Z,927.66
2017-05-10T01:59:41.633Z,927.66
2017-05-10T02:00:01.645Z,927.69
2017-05-10T02:00:21.639Z,927.71
2017-05-10T02:00:41.622Z,927.7
2017-05-10T02:01:01.625Z,927.7
2017-05-10T02:01:21.606Z,927.66
2017-05-10T02:01:41.593Z,927.73
2017-05-10T02:02:01.076Z,927.72
2017-05-10T02:02:21.041Z,927.73
2017-05-10T02:02:41.010Z,927.73
2017-05-10T02:03:00.441Z,927.72
2017-05-10T02:03:19.885Z,927.73
2017-05-10T02:03:39.909Z,927.69
2017-05-10T02:03:59.887Z,927.73
2017-05-10T02:04:19.878Z,927.72
2017-05-10T02:04:39.335Z,927.7
2017-05-10T02:04:59.355Z,927.71
2017-05-10T02:05:19.339Z,927.74
2017-05-10T02:05:39.302Z,927.71
2017-05-10T02:05:59.327Z,927.73
2017-05-10T02:06:19.379Z,927.75
2017-05-10T02:06:39.403Z,927.77
2017-05-10T02:06:59.410Z,927.76
2017-05-10T02:07:19.382Z,927.75
2017-05-10T02:07:38.791Z,927.75
2017-05-10T02:07:58.761Z,927.72
2017-05-10T02:08:17.656Z,927.74
2017-05-10T02:08:37.649Z,927.75
2017-05-10T02:08:57.037Z,927.73
2017-05-10T02:09:17.065Z,927.75
2017-05-10T02:09:37.071Z,927.73
2017-05-10T02:09:56.513Z,927.75
2017-05-10T02:10:16.462Z,927.76
2017-05-10T02:10:36.412Z,927.73
2017-05-10T02:10:56.453Z,927.76
2017-05-10T02:11:16.503Z,927.73
2017-05-10T02:11:36.530Z,927.73
2017-05-10T02:11:55.968Z,927.75
2017-05-10T02:12:15.953Z,927.75
2017-05-10T02:12:35.937Z,927.73
2017-05-10T02:12:55.958Z,927.73
2017-05-10T02:13:15.936Z,927.75
2017-05-10T02:13:35.378Z,927.73
2017-05-10T02:13:55.382Z,927.74
2017-05-10T02:14:15.369Z,927.75
2017-05-10T02:14:34.800Z,927.76
2017-05-10T02:14:54.236Z,927.75
2017-05-10T02:15:14.237Z,927.77
2017-05-10T02:15:34.206Z,927.78
2017-05-10T02:15:53.610Z,927.76
2017-05-10T02:16:14.100Z,927.77
2017-05-10T02:16:34.103Z,927.74
2017-05-10T02:16:54.064Z,927.78
2017-05-10T02:17:14.029Z,927.73
2017-05-10T02:17:34.004Z,927.73
2017-05-10T02:17:53.984Z,927.78
2017-05-10T02:18:13.980Z,927.75
2017-05-10T02:18:33.974Z,927.72
2017-05-10T02:18:53.949Z,927.73
2017-05-10T02:19:13.371Z,927.77
2017-05-10T02:19:33.400Z,927.76
2017-05-10T02:19:52.852Z,927.72
2017-05-10T02:20:12.321Z,927.75
2017-05-10T02:20:32.340Z,927.81
2017-05-10T02:20:52.375Z,927.72
2017-05-10T02:21:11.786Z,927.76
2017-05-10T02:21:31.777Z,927.77
2017-05-10T02:21:51.770Z,927.77
2017-05-10T02:22:18.246Z,927.79
2017-05-10T02:22:38.323Z,927.76
2017-05-10T02:22:58.331Z,927.76
2017-05-10T02:23:18.343Z,927.77
2017-05-10T02:23:37.754Z,927.75
2017-05-10T02:23:57.741Z,927.77
2017-05-10T02:24:17.717Z,927.77
2017-05-10T02:24:37.718Z,927.76
2017-05-10T02:24:57.712Z,927.79
2017-05-10T02:25:17.682Z,927.76
2017-05-10T02:25:37.622Z,927.76
2017-05-10T02:25:57.619Z,927.74
2017-05-10T02:26:17.079Z,927.73
2017-05-10T02:26:37.080Z,927.71
2017-05-10T02:26:57.084Z,927.74
2017-05-10T02:27:17.090Z,927.73
2017-05-10T02:27:37.081Z,927.73
2017-05-10T02:27:57.088Z,927.66
2017-05-10T02:28:17.080Z,927.67
2017-05-10T02:28:37.075Z,927.64
2017-05-10T02:28:57.057Z,927.67
2017-05-10T02:29:16.477Z,927.6
2017-05-10T02:29:36.553Z,927.67
2017-05-10T02:29:56.539Z,927.68
2017-05-10T02:30:15.420Z,927.67
2017-05-10T02:30:35.416Z,927.68
2017-05-10T02:30:55.430Z,927.64
2017-05-10T02:31:14.860Z,927.67
2017-05-10T02:31:34.809Z,927.73
2017-05-10T02:31:54.783Z,927.74
2017-05-10T02:32:14.215Z,927.72
2017-05-10T02:32:34.198Z,927.69
2017-05-10T02:32:54.169Z,927.68
2017-05-10T02:33:14.199Z,927.69
2017-05-10T02:33:34.168Z,927.72
2017-05-10T02:33:54.177Z,927.71
2017-05-10T02:34:14.170Z,927.71
2017-05-10T02:34:34.142Z,927.7
2017-05-10T02:34:54.129Z,927.74
2017-05-10T02:35:14.091Z,927.73
2017-05-10T02:35:34.096Z,927.75
2017-05-10T02:35:54.094Z,927.73
2017-05-10T02:36:14.262Z,927.73
2017-05-10T02:36:34.264Z,927.74
2017-05-10T02:36:54.319Z,927.74
2017-05-10T02:37:13.727Z,927.73
2017-05-10T02:37:33.167Z,927.75
2017-05-10T02:37:52.049Z,927.73
2017-05-10T02:38:11.487Z,927.76
2017-05-10T02:38:30.916Z,927.7
2017-05-10T02:38:50.886Z,927.76
2017-05-10T02:39:10.336Z,927.76
2017-05-10T02:39:30.348Z,927.79
2017-05-10T02:39:50.459Z,927.75
2017-05-10T02:40:10.485Z,927.76
2017-05-10T02:40:30.462Z,927.76
2017-05-10T02:40:50.429Z,927.75
2017-05-10T02:41:10.425Z,927.78
2017-05-10T02:41:30.632Z,927.8
2017-05-10T02:41:50.062Z,927.81
2017-05-10T02:42:10.041Z,927.82
2017-05-10T02:42:29.454Z,927.81
2017-05-10T02:42:49.425Z,927.82
2017-05-10T02:43:08.885Z,927.79
2017-05-10T02:43:28.932Z,927.82
2017-05-10T02:43:48.956Z,927.79
2017-05-10T02:44:08.954Z,927.78
2017-05-10T02:44:28.424Z,927.82
2017-05-10T02:44:48.395Z,927.83
2017-05-10T02:45:08.382Z,927.81
2017-05-10T02:45:42.206Z,927.79
2017-05-10T02:46:02.153Z,927.83
2017-05-10T02:46:21.604Z,927.8
2017-05-10T02:46:41.606Z,927.81
2017-05-10T02:47:01.043Z,927.81
2017-05-10T02:47:21.020Z,927.84
2017-05-10T02:47:41.004Z,927.83
2017-05-10T02:48:00.981Z,927.82
2017-05-10T02:48:20.975Z,927.83
2017-05-10T02:48:40.400Z,927.81
2017-05-10T02:49:00.110Z,927.82
2017-05-10T02:49:20.267Z,927.81
2017-05-10T02:49:40.274Z,927.8
2017-05-10T02:49:59.738Z,927.79
2017-05-10T02:50:19.177Z,927.81
2017-05-10T02:50:39.174Z,927.86
2017-05-10T02:50:59.171Z,927.81
2017-05-10T02:51:18.843Z,927.85
2017-05-10T02:51:38.874Z,927.85
2017-05-10T02:51:58.851Z,927.82
2017-05-10T02:52:18.833Z,927.84
2017-05-10T02:52:38.829Z,927.84
2017-05-10T02:52:58.838Z,927.82
2017-05-10T02:53:18.266Z,927.85
2017-05-10T02:53:38.227Z,927.82
2017-05-10T02:53:58.289Z,927.85
2017-05-10T02:54:18.296Z,927.82
2017-05-10T02:54:38.453Z,927.83
2017-05-10T02:54:58.465Z,927.84
2017-05-10T02:55:17.933Z,927.84
2017-05-10T02:55:37.920Z,927.82
2017-05-10T02:55:57.932Z,927.84
2017-05-10T02:56:17.309Z,927.81
2017-05-10T02:56:37.566Z,927.81
2017-05-10T02:56:57.025Z,927.84
2017-05-10T02:57:16.447Z,927.83
2017-05-10T02:57:36.429Z,927.8
2017-05-10T02:57:56.419Z,927.83
2017-05-10T02:58:16.394Z,927.83
2017-05-10T02:58:36.399Z,927.83
2017-05-10T02:58:56.398Z,927.8
2017-05-10T02:59:16.381Z,927.8
2017-05-10T02:59:36.369Z,927.8
2017-05-10T02:59:55.782Z,927.8
2017-05-10T03:00:14.625Z,927.81
2017-05-10T03:00:34.597Z,927.76
2017-05-10T03:00:54.580Z,927.8
2017-05-10T03:01:14.029Z,927.8
2017-05-10T03:01:34.037Z,927.84
2017-05-10T03:01:54.018Z,927.81
2017-05-10T03:02:14.001Z,927.82
2017-05-10T03:02:33.989Z,927.81
2017-05-10T03:02:53.984Z,927.81
2017-05-10T03:03:13.961Z,927.79
2017-05-10T03:03:33.943Z,927.86
2017-05-10T03:03:53.949Z,927.82
2017-05-10T03:04:13.970Z,927.81
2017-05-10T03:04:33.415Z,927.85
2017-05-10T03:04:53.414Z,927.81
2017-05-10T03:05:12.834Z,927.81
2017-05-10T03:05:32.816Z,927.79
2017-05-10T03:05:52.477Z,927.83
2017-05-10T03:06:12.503Z,927.8
2017-05-10T03:06:32.475Z,927.86
2017-05-10T03:06:52.465Z,927.8
2017-05-10T03:07:12.460Z,927.82
2017-05-10T03:07:31.865Z,927.76
2017-05-10T03:07:51.344Z,927.83
2017-05-10T03:08:11.346Z,927.77
2017-05-10T03:08:31.355Z,927.83
2017-05-10T03:08:51.338Z,927.82
2017-05-10T03:09:11.331Z,927.84
2017-05-10T03:09:31.276Z,927.8
2017-05-10T03:09:51.272Z,927.81
2017-05-10T03:10:11.292Z,927.79
2017-05-10T03:10:30.728Z,927.81
2017-05-10T03:10:50.746Z,927.83
2017-05-10T03:11:10.726Z,927.81
2017-05-10T03:11:30.696Z,927.86
2017-05-10T03:11:50.665Z,927.83
2017-05-10T03:12:10.375Z,927.81
2017-05-10T03:12:30.331Z,927.86
2017-05-10T03:12:50.348Z,927.85
2017-05-10T03:13:10.353Z,927.83
2017-05-10T03:13:29.757Z,927.82
2017-05-10T03:13:49.783Z,927.81
2017-05-10T03:14:09.819Z,927.84
2017-05-10T03:14:29.275Z,927.84
2017-05-10T03:14:49.242Z,927.84
2017-05-10T03:15:09.248Z,927.81
2017-05-10T03:15:29.276Z,927.77
2017-05-10T03:15:49.287Z,927.81
2017-05-10T03:16:09.274Z,927.85
2017-05-10T03:16:28.720Z,927.82
2017-05-10T03:16:48.710Z,927.83
2017-05-10T03:17:08.651Z,927.81
2017-05-10T03:17:28.665Z,927.82
2017-05-10T03:17:48.659Z,927.83
2017-05-10T03:18:08.617Z,927.82
2017-05-10T03:18:28.612Z,927.82
2017-05-10T03:18:48.632Z,927.86
2017-05-10T03:19:08.603Z,927.81
2017-05-10T03:19:28.059Z,927.78
2017-05-10T03:19:48.042Z,927.81
2017-05-10T03:20:08.042Z,927.84
2017-05-10T03:20:27.497Z,927.83
2017-05-10T03:20:47.457Z,927.83
2017-05-10T03:21:06.875Z,927.85
2017-05-10T03:21:26.866Z,927.84
2017-05-10T03:21:46.288Z,927.84
2017-05-10T03:22:06.287Z,927.81
2017-05-10T03:22:26.254Z,927.81
2017-05-10T03:22:46.258Z,927.83
2017-05-10T03:23:06.291Z,927.83
2017-05-10T03:23:26.284Z,927.86
2017-05-10T03:23:46.274Z,927.9
2017-05-10T03:24:06.310Z,927.85
2017-05-10T03:24:26.293Z,927.84
2017-05-10T03:24:46.361Z,927.84
2017-05-10T03:25:05.779Z,927.9
2017-05-10T03:25:25.745Z,927.82
2017-05-10T03:25:45.689Z,927.84
2017-05-10T03:26:05.107Z,927.86
2017-05-10T03:26:24.537Z,927.84
2017-05-10T03:26:44.495Z,927.88
2017-05-10T03:27:03.924Z,927.91
2017-05-10T03:27:23.335Z,927.8
2017-05-10T03:27:42.802Z,927.89
2017-05-10T03:28:02.786Z,927.88
2017-05-10T03:28:22.795Z,927.88
2017-05-10T03:28:42.757Z,927.9
2017-05-10T03:29:02.212Z,927.87
2017-05-10T03:29:22.227Z,927.91
2017-05-10T03:29:42.205Z,927.86
2017-05-10T03:30:01.125Z,927.85
2017-05-10T03:30:20.557Z,927.87
2017-05-10T03:30:40.527Z,927.84
2017-05-10T03:31:00.503Z,927.88
2017-05-10T03:31:19.976Z,927.85
2017-05-10T03:31:39.948Z,927.86
2017-05-10T03:31:59.898Z,927.86
2017-05-10T03:32:19.887Z,927.87
2017-05-10T03:32:39.905Z,927.83
2017-05-10T03:32:59.894Z,927.8
2017-05-10T03:33:19.304Z,927.8
2017-05-10T03:33:39.299Z,927.82
2017-05-10T03:33:59.306Z,927.81
2017-05-10T03:34:19.273Z,927.8
2017-05-10T03:34:39.250Z,927.76
2017-05-10T03:34:58.677Z,927.8
2017-05-10T03:35:18.689Z,927.82
2017-05-10T03:35:38.683Z,927.83
2017-05-10T03:35:58.711Z,927.78
2017-05-10T03:36:18.119Z,927.81
2017-05-10T03:36:38.082Z,927.81
2017-05-10T03:36:58.027Z,927.82
2017-05-10T03:37:18.037Z,927.84
2017-05-10T03:37:38.038Z,927.85
2017-05-10T03:37:58.031Z,927.84
2017-05-10T03:38:17.996Z,927.83
2017-05-10T03:38:37.388Z,927.84
2017-05-10T03:38:57.330Z,927.88
2017-05-10T03:39:17.328Z,927.82
2017-05-10T03:39:37.290Z,927.86
2017-05-10T03:39:57.282Z,927.84
2017-05-10T03:40:17.280Z,927.83
2017-05-10T03:40:37.257Z,927.84
2017-05-10T03:40:57.249Z,927.88
2017-05-10T03:41:17.194Z,927.82
2017-05-10T03:41:37.192Z,927.83
2017-05-10T03:41:57.174Z,927.84
2017-05-10T03:42:16.628Z,927.83
2017-05-10T03:42:36.031Z,927.82
2017-05-10T03:42:56.062Z,927.81
2017-05-10T03:43:16.022Z,927.8
2017-05-10T03:43:36.008Z,927.82
2017-05-10T03:43:56.009Z,927.8
2017-05-10T03:44:14.888Z,927.78
2017-05-10T03:44:34.879Z,927.8
2017-05-10T03:44:54.850Z,927.81
2017-05-10T03:45:14.869Z,927.8
2017-05-10T03:45:34.841Z,927.79
2017-05-10T03:45:54.818Z,927.79
2017-05-10T03:46:14.815Z,927.77
2017-05-10T03:46:34.794Z,927.79
2017-05-10T03:46:54.798Z,927.78
2017-05-10T03:47:14.244Z,927.76
2017-05-10T03:47:34.207Z,927.78
2017-05-10T03:47:53.670Z,927.75
2017-05-10T03:48:13.658Z,927.76
2017-05-10T03:48:33.630Z,927.76
2017-05-10T03:48:53.600Z,927.77
2017-05-10T03:49:13.566Z,927.77
2017-05-10T03:49:33.573Z,927.75
2017-05-10T03:49:53.576Z,927.76
2017-05-10T03:50:13.554Z,927.74
2017-05-10T03:50:33.521Z,927.76
2017-05-10T03:50:52.990Z,927.81
2017-05-10T03:51:12.948Z,927.79
2017-05-10T03:51:32.969Z,927.8
2017-05-10T03:51:53.001Z,927.82
2017-05-10T03:52:12.983Z,927.81
2017-05-10T03:52:32.964Z,927.8
2017-05-10T03:52:52.959Z,927.8
2017-05-10T03:53:12.965Z,927.79
2017-05-10T03:53:32.364Z,927.77
2017-05-10T03:53:52.366Z,927.76
2017-05-10T03:54:12.377Z,927.76
2017-05-10T03:54:32.391Z,927.76
2017-05-10T03:54:52.332Z,927.81
2017-05-10T03:55:12.348Z,927.74
2017-05-10T03:55:32.326Z,927.74
2017-05-10T03:55:51.757Z,927.74
2017-05-10T03:56:11.742Z,927.74
2017-05-10T03:56:31.746Z,927.78
2017-05-10T03:56:51.155Z,927.78
2017-05-10T03:57:11.174Z,927.77
2017-05-10T03:57:31.172Z,927.73
2017-05-10T03:57:51.179Z,927.77
2017-05-10T03:58:11.154Z,927.78
2017-05-10T03:58:30.027Z,927.74
2017-05-10T03:58:49.459Z,927.73
2017-05-10T03:59:09.434Z,927.73
2017-05-10T03:59:29.435Z,927.73
2017-05-10T03:59:48.868Z,927.72
2017-05-10T04:00:08.873Z,927.73
2017-05-10T04:00:27.759Z,927.72
2017-05-10T04:00:47.997Z,927.71
2017-05-10T04:01:07.959Z,927.69
2017-05-10T04:01:27.955Z,927.72
2017-05-10T04:01:47.948Z,927.73
2017-05-10T04:02:06.838Z,927.7
2017-05-10T04:02:26.822Z,927.7
2017-05-10T04:02:46.792Z,927.7
2017-05-10T04:03:06.804Z,927.7
2017-05-10T04:03:26.213Z,927.71
2017-05-10T04:03:46.215Z,927.7
2017-05-10T04:04:06.166Z,927.73
2017-05-10T04:04:26.141Z,927.7
2017-05-10T04:04:45.602Z,927.74
2017-05-10T04:05:05.575Z,927.73
2017-05-10T04:05:25.570Z,927.75
2017-05-10T04:05:45.532Z,927.71
2017-05-10T04:06:05.528Z,927.74
2017-05-10T04:06:25.518Z,927.73
2017-05-10T04:06:45.502Z,927.74
2017-05-10T04:07:05.523Z,927.78
2017-05-10T04:07:25.525Z,927.77
2017-05-10T04:07:45.502Z,927.78
2017-05-10T04:08:04.949Z,927.8
2017-05-10T04:08:24.381Z,927.79
2017-05-10T04:08:44.395Z,927.8
2017-05-10T04:09:04.354Z,927.79
2017-05-10T04:09:24.367Z,927.77
2017-05-10T04:09:44.336Z,927.82
2017-05-10T04:10:03.778Z,927.8
2017-05-10T04:10:22.633Z,927.77
2017-05-10T04:10:42.632Z,927.77
2017-05-10T04:11:02.303Z,927.79
2017-05-10T04:11:22.325Z,927.8